Terminal Aerodrome Forecast
Issued by NWS

Current Version | Previous Version | Graphics & Text | Print | Product List | Glossary On
Versions: 1 2 3 4 5 6 7 8 9 10 11 12 13 14 15 16 17 18 19 20 21 22
956
FTUS41 KPBZ 230520
TAFMGW
TAF
KMGW 230520Z 2306/2406 25005KT P6SM VCSH SCT010 BKN050
      TEMPO 2306/2309 BKN010
     FM230900 30003KT 3SM BR SCT050
     FM231200 30005KT P6SM SCT040=

USA.gov is the U.S. government's official web portal to all federal, state and local government web resources and services.